sensor_id;sensor_type;location;lat;lon;timestamp;pressure;altitude;pressure_sealevel;temperature;humidity
63535;BME280;55128;50.230;18.944;2023-05-03T00:01:25;99099.88;;;12.79;83.14
63535;BME280;55128;50.230;18.944;2023-05-03T00:06:25;99094.69;;;12.57;83.90
63535;BME280;55128;50.230;18.944;2023-05-03T00:11:25;99091.84;;;12.61;83.79
63535;BME280;55128;50.230;18.944;2023-05-03T00:16:26;99087.28;;;12.63;83.45
63535;BME280;55128;50.230;18.944;2023-05-03T00:21:26;99085.56;;;12.62;83.69
63535;BME280;55128;50.230;18.944;2023-05-03T00:26:27;99087.44;;;12.60;82.46
63535;BME280;55128;50.230;18.944;2023-05-03T00:31:27;99082.16;;;12.59;82.63
63535;BME280;55128;50.230;18.944;2023-05-03T00:36:28;99086.56;;;12.60;82.09
63535;BME280;55128;50.230;18.944;2023-05-03T00:41:30;99085.97;;;12.53;82.29
63535;BME280;55128;50.230;18.944;2023-05-03T00:46:30;99086.69;;;12.38;82.96
63535;BME280;55128;50.230;18.944;2023-05-03T00:51:31;99079.00;;;12.51;82.06
63535;BME280;55128;50.230;18.944;2023-05-03T00:56:32;99079.50;;;12.40;82.39
63535;BME280;55128;50.230;18.944;2023-05-03T01:01:33;99088.16;;;12.45;82.73
63535;BME280;55128;50.230;18.944;2023-05-03T01:17:03;99092.94;;;12.37;83.37
63535;BME280;55128;50.230;18.944;2023-05-03T01:22:31;99094.75;;;12.36;82.31
63535;BME280;55128;50.230;18.944;2023-05-03T01:27:36;99097.34;;;12.38;82.78
63535;BME280;55128;50.230;18.944;2023-05-03T01:38:15;99101.97;;;12.14;84.22
63535;BME280;55128;50.230;18.944;2023-05-03T01:43:17;99096.66;;;12.14;84.41
63535;BME280;55128;50.230;18.944;2023-05-03T01:48:18;99107.38;;;12.12;84.25
63535;BME280;55128;50.230;18.944;2023-05-03T01:53:18;99105.66;;;12.11;83.93
63535;BME280;55128;50.230;18.944;2023-05-03T01:58:19;99103.47;;;12.00;84.55
63535;BME280;55128;50.230;18.944;2023-05-03T02:03:19;99108.78;;;12.00;85.08
63535;BME280;55128;50.230;18.944;2023-05-03T02:08:19;99105.03;;;12.04;84.66
63535;BME280;55128;50.230;18.944;2023-05-03T02:13:20;99106.06;;;12.02;84.69
63535;BME280;55128;50.230;18.944;2023-05-03T02:18:20;99111.84;;;11.91;84.13
63535;BME280;55128;50.230;18.944;2023-05-03T02:23:21;99107.09;;;11.77;85.65
63535;BME280;55128;50.230;18.944;2023-05-03T02:28:21;99106.56;;;11.90;86.19
63535;BME280;55128;50.230;18.944;2023-05-03T02:33:22;99111.31;;;12.03;85.98
63535;BME280;55128;50.230;18.944;2023-05-03T02:38:22;99108.25;;;12.13;84.49
63535;BME280;55128;50.230;18.944;2023-05-03T02:43:22;99107.84;;;12.22;84.29
63535;BME280;55128;50.230;18.944;2023-05-03T02:48:23;99114.56;;;12.10;84.96
63535;BME280;55128;50.230;18.944;2023-05-03T02:53:23;99117.06;;;12.34;84.74
63535;BME280;55128;50.230;18.944;2023-05-03T02:58:24;99124.09;;;12.35;84.41
63535;BME280;55128;50.230;18.944;2023-05-03T03:03:24;99123.59;;;12.27;85.41
63535;BME280;55128;50.230;18.944;2023-05-03T03:08:24;99125.13;;;12.32;84.94
63535;BME280;55128;50.230;18.944;2023-05-03T03:13:25;99129.66;;;12.10;85.11
63535;BME280;55128;50.230;18.944;2023-05-03T03:18:25;99126.16;;;12.09;85.31
63535;BME280;55128;50.230;18.944;2023-05-03T03:23:25;99126.09;;;12.11;85.91
63535;BME280;55128;50.230;18.944;2023-05-03T03:28:26;99123.66;;;12.25;84.53
63535;BME280;55128;50.230;18.944;2023-05-03T03:33:26;99125.94;;;12.14;84.68
63535;BME280;55128;50.230;18.944;2023-05-03T03:38:27;99133.97;;;12.12;84.72
63535;BME280;55128;50.230;18.944;2023-05-03T03:43:27;99135.50;;;12.18;84.72
63535;BME280;55128;50.230;18.944;2023-05-03T03:48:27;99144.09;;;12.24;84.73
63535;BME280;55128;50.230;18.944;2023-05-03T03:53:28;99142.22;;;12.27;83.44
63535;BME280;55128;50.230;18.944;2023-05-03T03:58:28;99146.94;;;12.20;84.08
63535;BME280;55128;50.230;18.944;2023-05-03T04:03:29;99147.28;;;12.12;84.15
63535;BME280;55128;50.230;18.944;2023-05-03T04:08:29;99149.22;;;12.09;83.85
63535;BME280;55128;50.230;18.944;2023-05-03T04:13:29;99155.44;;;12.09;84.56
63535;BME280;55128;50.230;18.944;2023-05-03T04:18:30;99155.09;;;12.17;83.83
63535;BME280;55128;50.230;18.944;2023-05-03T04:23:30;99169.19;;;11.98;84.82
63535;BME280;55128;50.230;18.944;2023-05-03T04:28:31;99171.34;;;12.11;84.31
63535;BME280;55128;50.230;18.944;2023-05-03T04:33:31;99176.91;;;12.25;84.32
63535;BME280;55128;50.230;18.944;2023-05-03T04:38:32;99185.34;;;12.35;84.01
63535;BME280;55128;50.230;18.944;2023-05-03T04:43:32;99190.66;;;12.35;81.94
63535;BME280;55128;50.230;18.944;2023-05-03T04:48:33;99196.19;;;12.10;83.90
63535;BME280;55128;50.230;18.944;2023-05-03T04:53:36;99198.56;;;11.95;82.39
63535;BME280;55128;50.230;18.944;2023-05-03T04:58:37;99207.19;;;11.80;83.69
63535;BME280;55128;50.230;18.944;2023-05-03T05:03:37;99207.19;;;11.80;82.92
63535;BME280;55128;50.230;18.944;2023-05-03T05:08:37;99217.44;;;11.67;83.12
63535;BME280;55128;50.230;18.944;2023-05-03T05:13:38;99223.81;;;11.85;82.30
63535;BME280;55128;50.230;18.944;2023-05-03T05:18:38;99221.03;;;11.88;82.46
63535;BME280;55128;50.230;18.944;2023-05-03T05:23:38;99237.59;;;11.73;80.00
63535;BME280;55128;50.230;18.944;2023-05-03T05:28:39;99241.00;;;11.54;79.74
63535;BME280;55128;50.230;18.944;2023-05-03T05:33:39;99246.22;;;11.57;79.84
63535;BME280;55128;50.230;18.944;2023-05-03T05:38:41;99249.50;;;11.64;78.82
63535;BME280;55128;50.230;18.944;2023-05-03T05:43:41;99256.72;;;11.38;78.37
63535;BME280;55128;50.230;18.944;2023-05-03T05:48:41;99259.31;;;11.40;78.62
63535;BME280;55128;50.230;18.944;2023-05-03T05:53:42;99259.38;;;11.38;78.91
63535;BME280;55128;50.230;18.944;2023-05-03T05:58:45;99263.47;;;11.47;77.57
63535;BME280;55128;50.230;18.944;2023-05-03T06:03:45;99264.53;;;11.65;76.21
63535;BME280;55128;50.230;18.944;2023-05-03T06:08:46;99271.25;;;11.52;75.87
63535;BME280;55128;50.230;18.944;2023-05-03T06:13:49;99275.00;;;11.70;75.49
63535;BME280;55128;50.230;18.944;2023-05-03T06:18:50;99281.66;;;11.58;74.36
63535;BME280;55128;50.230;18.944;2023-05-03T06:23:51;99284.09;;;11.64;74.69
63535;BME280;55128;50.230;18.944;2023-05-03T06:28:51;99286.28;;;11.75;74.20
63535;BME280;55128;50.230;18.944;2023-05-03T06:33:51;99288.34;;;11.68;71.71
63535;BME280;55128;50.230;18.944;2023-05-03T06:38:52;99296.69;;;11.59;73.52
63535;BME280;55128;50.230;18.944;2023-05-03T06:43:52;99298.31;;;11.85;72.82
63535;BME280;55128;50.230;18.944;2023-05-03T06:48:53;99302.88;;;11.81;71.73
63535;BME280;55128;50.230;18.944;2023-05-03T06:53:57;99310.88;;;11.81;71.00
63535;BME280;55128;50.230;18.944;2023-05-03T06:59:06;99316.97;;;12.07;71.30
63535;BME280;55128;50.230;18.944;2023-05-03T07:04:08;99315.72;;;12.58;71.80
63535;BME280;55128;50.230;18.944;2023-05-03T07:09:09;99317.25;;;12.64;69.16
63535;BME280;55128;50.230;18.944;2023-05-03T07:14:09;99314.56;;;12.64;68.01
63535;BME280;55128;50.230;18.944;2023-05-03T07:19:10;99314.28;;;12.91;68.30
63535;BME280;55128;50.230;18.944;2023-05-03T07:24:10;99317.22;;;13.05;65.36
63535;BME280;55128;50.230;18.944;2023-05-03T07:29:11;99322.19;;;12.73;63.38
63535;BME280;55128;50.230;18.944;2023-05-03T07:34:12;99319.22;;;13.00;64.93
63535;BME280;55128;50.230;18.944;2023-05-03T07:39:12;99327.34;;;12.97;62.82
63535;BME280;55128;50.230;18.944;2023-05-03T07:44:12;99322.19;;;13.33;64.32
63535;BME280;55128;50.230;18.944;2023-05-03T07:49:14;99330.75;;;13.40;62.13
63535;BME280;55128;50.230;18.944;2023-05-03T07:54:20;99319.81;;;13.84;58.89
63535;BME280;55128;50.230;18.944;2023-05-03T07:59:22;99325.81;;;13.70;58.85
63535;BME280;55128;50.230;18.944;2023-05-03T08:04:23;99331.06;;;13.34;59.97
63535;BME280;55128;50.230;18.944;2023-05-03T08:09:23;99327.66;;;13.49;59.12
63535;BME280;55128;50.230;18.944;2023-05-03T08:14:24;99328.94;;;13.97;59.73
63535;BME280;55128;50.230;18.944;2023-05-03T08:19:25;99334.28;;;13.97;58.84
63535;BME280;55128;50.230;18.944;2023-05-03T08:24:25;99335.13;;;13.61;58.68
63535;BME280;55128;50.230;18.944;2023-05-03T08:29:26;99334.25;;;13.61;59.09
63535;BME280;55128;50.230;18.944;2023-05-03T08:34:26;99343.03;;;13.82;57.75
63535;BME280;55128;50.230;18.944;2023-05-03T08:39:26;99343.75;;;14.05;56.61
63535;BME280;55128;50.230;18.944;2023-05-03T08:44:28;99354.94;;;13.94;58.21
63535;BME280;55128;50.230;18.944;2023-05-03T08:49:30;99363.25;;;13.69;56.55
63535;BME280;55128;50.230;18.944;2023-05-03T08:54:31;99359.31;;;13.38;57.33
63535;BME280;55128;50.230;18.944;2023-05-03T08:59:32;99364.56;;;13.39;57.86
63535;BME280;55128;50.230;18.944;2023-05-03T09:04:32;99369.34;;;13.33;58.98
63535;BME280;55128;50.230;18.944;2023-05-03T09:09:33;99373.50;;;13.59;58.43
63535;BME280;55128;50.230;18.944;2023-05-03T09:14:41;99381.03;;;13.49;57.66
63535;BME280;55128;50.230;18.944;2023-05-03T09:19:56;99376.41;;;13.53;57.47
63535;BME280;55128;50.230;18.944;2023-05-03T09:24:58;99382.66;;;13.72;57.84
63535;BME280;55128;50.230;18.944;2023-05-03T09:30:16;99380.47;;;13.80;57.05
63535;BME280;55128;50.230;18.944;2023-05-03T09:35:17;99377.72;;;13.44;57.64
63535;BME280;55128;50.230;18.944;2023-05-03T09:40:17;99385.38;;;13.52;58.11
63535;BME280;55128;50.230;18.944;2023-05-03T09:45:24;99384.47;;;13.51;57.60
63535;BME280;55128;50.230;18.944;2023-05-03T09:50:24;99382.22;;;14.00;56.56
63535;BME280;55128;50.230;18.944;2023-05-03T09:55:26;99396.00;;;13.33;56.15
63535;BME280;55128;50.230;18.944;2023-05-03T10:00:28;99390.34;;;13.59;56.10
63535;BME280;55128;50.230;18.944;2023-05-03T10:05:30;99379.63;;;13.61;57.12
63535;BME280;55128;50.230;18.944;2023-05-03T10:10:33;99377.88;;;13.79;57.26
63535;BME280;55128;50.230;18.944;2023-05-03T10:15:35;99382.00;;;13.86;56.54
63535;BME280;55128;50.230;18.944;2023-05-03T10:20:49;99380.81;;;14.11;56.47
63535;BME280;55128;50.230;18.944;2023-05-03T10:31:44;99371.13;;;14.64;54.46
63535;BME280;55128;50.230;18.944;2023-05-03T10:36:47;99379.00;;;14.67;54.83
63535;BME280;55128;50.230;18.944;2023-05-03T10:42:06;99383.50;;;14.47;54.32
63535;BME280;55128;50.230;18.944;2023-05-03T10:47:15;99374.53;;;13.74;56.33
63535;BME280;55128;50.230;18.944;2023-05-03T10:57:36;99380.34;;;14.03;56.53
63535;BME280;55128;50.230;18.944;2023-05-03T11:02:56;99383.63;;;13.51;57.34
63535;BME280;55128;50.230;18.944;2023-05-03T11:08:17;99381.31;;;13.43;56.50
63535;BME280;55128;50.230;18.944;2023-05-03T11:13:21;99375.00;;;13.65;55.94
63535;BME280;55128;50.230;18.944;2023-05-03T11:18:25;99377.34;;;14.09;55.45
63535;BME280;55128;50.230;18.944;2023-05-03T11:23:27;99376.09;;;14.35;54.73
63535;BME280;55128;50.230;18.944;2023-05-03T11:28:29;99376.00;;;14.73;53.20
63535;BME280;55128;50.230;18.944;2023-05-03T11:33:30;99377.34;;;14.82;52.71
63535;BME280;55128;50.230;18.944;2023-05-03T11:38:34;99380.59;;;14.52;53.25
63535;BME280;55128;50.230;18.944;2023-05-03T11:43:40;99374.28;;;14.72;53.31
63535;BME280;55128;50.230;18.944;2023-05-03T11:48:42;99370.97;;;15.35;52.22
63535;BME280;55128;50.230;18.944;2023-05-03T11:53:43;99369.16;;;15.69;51.33
63535;BME280;55128;50.230;18.944;2023-05-03T11:58:55;99365.31;;;16.22;50.96
63535;BME280;55128;50.230;18.944;2023-05-03T12:04:02;99367.66;;;16.28;49.83
63535;BME280;55128;50.230;18.944;2023-05-03T12:09:12;99367.38;;;15.69;50.28
63535;BME280;55128;50.230;18.944;2023-05-03T12:14:13;99372.22;;;15.45;50.92
63535;BME280;55128;50.230;18.944;2023-05-03T12:19:28;99362.50;;;14.58;53.64
63535;BME280;55128;50.230;18.944;2023-05-03T12:24:28;99371.53;;;14.73;53.20
63535;BME280;55128;50.230;18.944;2023-05-03T12:29:29;99369.50;;;15.29;52.39
63535;BME280;55128;50.230;18.944;2023-05-03T12:34:30;99365.69;;;15.18;51.77
63535;BME280;55128;50.230;18.944;2023-05-03T12:39:30;99357.38;;;14.71;51.61
63535;BME280;55128;50.230;18.944;2023-05-03T12:44:31;99351.25;;;14.87;50.80
63535;BME280;55128;50.230;18.944;2023-05-03T12:49:33;99357.84;;;14.97;52.06
63535;BME280;55128;50.230;18.944;2023-05-03T12:54:33;99352.59;;;15.29;51.56
63535;BME280;55128;50.230;18.944;2023-05-03T12:59:35;99356.25;;;15.77;50.17
63535;BME280;55128;50.230;18.944;2023-05-03T13:04:36;99355.56;;;15.73;50.32
63535;BME280;55128;50.230;18.944;2023-05-03T13:09:36;99349.34;;;14.89;51.48
63535;BME280;55128;50.230;18.944;2023-05-03T13:14:37;99342.44;;;14.85;51.59
63535;BME280;55128;50.230;18.944;2023-05-03T13:19:39;99340.19;;;15.28;51.10
63535;BME280;55128;50.230;18.944;2023-05-03T13:24:43;99345.91;;;15.53;49.11
63535;BME280;55128;50.230;18.944;2023-05-03T13:29:43;99339.34;;;15.59;47.64
63535;BME280;55128;50.230;18.944;2023-05-03T13:34:44;99328.44;;;15.96;48.73
63535;BME280;55128;50.230;18.944;2023-05-03T13:39:45;99329.06;;;16.47;46.59
63535;BME280;55128;50.230;18.944;2023-05-03T13:44:46;99314.69;;;16.02;49.31
63535;BME280;55128;50.230;18.944;2023-05-03T13:49:46;99325.19;;;15.41;49.30
63535;BME280;55128;50.230;18.944;2023-05-03T13:54:47;99319.50;;;15.47;48.27
63535;BME280;55128;50.230;18.944;2023-05-03T13:59:47;99318.78;;;15.28;47.41
63535;BME280;55128;50.230;18.944;2023-05-03T14:04:48;99307.78;;;15.82;46.58
63535;BME280;55128;50.230;18.944;2023-05-03T14:09:48;99319.69;;;15.60;47.06
63535;BME280;55128;50.230;18.944;2023-05-03T14:14:49;99311.41;;;16.12;46.14
63535;BME280;55128;50.230;18.944;2023-05-03T14:19:49;99299.75;;;16.44;45.76
63535;BME280;55128;50.230;18.944;2023-05-03T14:24:50;99305.28;;;16.71;44.18
63535;BME280;55128;50.230;18.944;2023-05-03T14:29:51;99312.88;;;16.02;44.97
63535;BME280;55128;50.230;18.944;2023-05-03T14:34:51;99305.56;;;15.74;44.75
63535;BME280;55128;50.230;18.944;2023-05-03T14:39:52;99309.50;;;15.99;45.99
63535;BME280;55128;50.230;18.944;2023-05-03T14:44:52;99312.88;;;16.18;45.22
63535;BME280;55128;50.230;18.944;2023-05-03T14:49:53;99311.25;;;16.00;44.71
63535;BME280;55128;50.230;18.944;2023-05-03T14:54:53;99311.53;;;16.25;45.25
63535;BME280;55128;50.230;18.944;2023-05-03T14:59:54;99323.81;;;15.50;46.33
63535;BME280;55128;50.230;18.944;2023-05-03T15:04:54;99313.16;;;14.99;47.37
63535;BME280;55128;50.230;18.944;2023-05-03T15:09:55;99320.56;;;14.94;46.21
63535;BME280;55128;50.230;18.944;2023-05-03T15:14:55;99311.25;;;15.01;45.13
63535;BME280;55128;50.230;18.944;2023-05-03T15:19:55;99316.75;;;15.15;45.27
63535;BME280;55128;50.230;18.944;2023-05-03T15:24:56;99314.97;;;15.32;44.12
63535;BME280;55128;50.230;18.944;2023-05-03T15:29:56;99316.03;;;15.45;44.19
63535;BME280;55128;50.230;18.944;2023-05-03T15:34:57;99319.28;;;15.19;44.37
63535;BME280;55128;50.230;18.944;2023-05-03T15:39:57;99323.09;;;15.30;44.17
63535;BME280;55128;50.230;18.944;2023-05-03T15:44:58;99318.31;;;15.20;44.52
63535;BME280;55128;50.230;18.944;2023-05-03T15:49:59;99314.78;;;15.19;43.40
63535;BME280;55128;50.230;18.944;2023-05-03T15:55:00;99315.78;;;15.50;44.60
63535;BME280;55128;50.230;18.944;2023-05-03T16:00:01;99315.19;;;15.45;43.69
63535;BME280;55128;50.230;18.944;2023-05-03T16:05:05;99317.50;;;15.51;42.94
63535;BME280;55128;50.230;18.944;2023-05-03T16:10:06;99312.41;;;15.46;43.41
63535;BME280;55128;50.230;18.944;2023-05-03T16:15:09;99310.34;;;15.51;43.24
63535;BME280;55128;50.230;18.944;2023-05-03T16:20:09;99306.19;;;15.30;43.02
63535;BME280;55128;50.230;18.944;2023-05-03T16:25:11;99311.34;;;15.33;42.87
63535;BME280;55128;50.230;18.944;2023-05-03T16:30:11;99303.72;;;15.09;43.90
63535;BME280;55128;50.230;18.944;2023-05-03T16:35:12;99308.78;;;14.98;44.21
63535;BME280;55128;50.230;18.944;2023-05-03T16:40:13;99310.75;;;14.77;44.43
63535;BME280;55128;50.230;18.944;2023-05-03T16:45:13;99312.69;;;14.56;44.50
63535;BME280;55128;50.230;18.944;2023-05-03T16:50:16;99308.47;;;14.69;44.66
63535;BME280;55128;50.230;18.944;2023-05-03T16:55:20;99312.88;;;14.70;44.90
63535;BME280;55128;50.230;18.944;2023-05-03T17:00:21;99314.59;;;14.71;44.08
63535;BME280;55128;50.230;18.944;2023-05-03T17:05:22;99310.75;;;14.60;44.39
63535;BME280;55128;50.230;18.944;2023-05-03T17:10:24;99315.25;;;14.59;44.43
63535;BME280;55128;50.230;18.944;2023-05-03T17:15:26;99315.53;;;14.53;44.50
63535;BME280;55128;50.230;18.944;2023-05-03T17:20:26;99312.63;;;14.40;44.50
63535;BME280;55128;50.230;18.944;2023-05-03T17:25:27;99317.72;;;14.45;44.98
63535;BME280;55128;50.230;18.944;2023-05-03T17:30:27;99319.41;;;14.28;44.60
63535;BME280;55128;50.230;18.944;2023-05-03T17:35:28;99322.72;;;14.16;44.22
63535;BME280;55128;50.230;18.944;2023-05-03T17:40:28;99324.81;;;14.09;44.23
63535;BME280;55128;50.230;18.944;2023-05-03T17:45:28;99330.66;;;14.17;44.20
63535;BME280;55128;50.230;18.944;2023-05-03T17:50:29;99323.75;;;14.13;44.57
63535;BME280;55128;50.230;18.944;2023-05-03T17:55:33;99332.09;;;14.25;44.22
63535;BME280;55128;50.230;18.944;2023-05-03T18:00:33;99340.84;;;13.90;45.03
63535;BME280;55128;50.230;18.944;2023-05-03T18:05:34;99340.38;;;13.63;44.33
63535;BME280;55128;50.230;18.944;2023-05-03T18:10:36;99336.34;;;13.54;44.89
63535;BME280;55128;50.230;18.944;2023-05-03T18:15:40;99335.31;;;13.38;44.75
63535;BME280;55128;50.230;18.944;2023-05-03T18:20:41;99338.94;;;13.37;45.28
63535;BME280;55128;50.230;18.944;2023-05-03T18:25:41;99339.06;;;13.34;45.46
63535;BME280;55128;50.230;18.944;2023-05-03T18:30:41;99335.31;;;13.17;45.90
63535;BME280;55128;50.230;18.944;2023-05-03T18:35:46;99351.22;;;13.00;47.02
63535;BME280;55128;50.230;18.944;2023-05-03T18:40:47;99356.41;;;12.82;48.43
63535;BME280;55128;50.230;18.944;2023-05-03T18:45:48;99349.72;;;12.72;48.89
63535;BME280;55128;50.230;18.944;2023-05-03T18:50:48;99354.19;;;12.51;49.42
63535;BME280;55128;50.230;18.944;2023-05-03T18:55:49;99360.09;;;12.15;52.00
63535;BME280;55128;50.230;18.944;2023-05-03T19:00:51;99365.53;;;11.66;55.01
63535;BME280;55128;50.230;18.944;2023-05-03T19:05:51;99364.56;;;11.93;55.98
63535;BME280;55128;50.230;18.944;2023-05-03T19:10:52;99360.63;;;11.79;58.08
63535;BME280;55128;50.230;18.944;2023-05-03T19:15:52;99360.91;;;11.48;60.30
63535;BME280;55128;50.230;18.944;2023-05-03T19:20:52;99366.63;;;11.37;62.04
63535;BME280;55128;50.230;18.944;2023-05-03T19:25:54;99370.75;;;11.22;63.37
63535;BME280;55128;50.230;18.944;2023-05-03T19:30:54;99362.13;;;11.16;65.50
63535;BME280;55128;50.230;18.944;2023-05-03T19:35:55;99371.50;;;10.76;62.64
63535;BME280;55128;50.230;18.944;2023-05-03T19:40:56;99365.03;;;10.31;65.40
63535;BME280;55128;50.230;18.944;2023-05-03T19:45:56;99368.59;;;10.02;66.52
63535;BME280;55128;50.230;18.944;2023-05-03T19:50:57;99366.97;;;9.98;67.17
63535;BME280;55128;50.230;18.944;2023-05-03T19:56:01;99371.19;;;9.75;67.90
63535;BME280;55128;50.230;18.944;2023-05-03T20:01:02;99370.38;;;9.73;67.83
63535;BME280;55128;50.230;18.944;2023-05-03T20:06:02;99348.19;;;9.46;69.41
63535;BME280;55128;50.230;18.944;2023-05-03T20:11:03;99350.47;;;9.28;70.91
63535;BME280;55128;50.230;18.944;2023-05-03T20:16:06;99343.25;;;9.04;73.05
63535;BME280;55128;50.230;18.944;2023-05-03T20:21:07;99352.00;;;9.06;72.14
63535;BME280;55128;50.230;18.944;2023-05-03T20:26:10;99345.56;;;8.83;72.30
63535;BME280;55128;50.230;18.944;2023-05-03T20:31:10;99351.03;;;8.77;72.47
63535;BME280;55128;50.230;18.944;2023-05-03T20:36:12;99352.81;;;8.77;72.83
63535;BME280;55128;50.230;18.944;2023-05-03T20:41:13;99349.91;;;8.53;73.80
63535;BME280;55128;50.230;18.944;2023-05-03T20:46:13;99355.44;;;8.44;73.38
63535;BME280;55128;50.230;18.944;2023-05-03T20:51:14;99353.94;;;8.32;73.83
63535;BME280;55128;50.230;18.944;2023-05-03T20:56:15;99353.22;;;8.24;73.37
63535;BME280;55128;50.230;18.944;2023-05-03T21:01:17;99359.22;;;7.96;74.72
63535;BME280;55128;50.230;18.944;2023-05-03T21:06:18;99362.44;;;7.70;76.00
63535;BME280;55128;50.230;18.944;2023-05-03T21:11:19;99361.56;;;7.69;76.26
63535;BME280;55128;50.230;18.944;2023-05-03T21:16:19;99356.94;;;7.38;77.91
63535;BME280;55128;50.230;18.944;2023-05-03T21:21:19;99350.63;;;7.46;76.13
63535;BME280;55128;50.230;18.944;2023-05-03T21:26:20;99350.13;;;7.28;77.27
63535;BME280;55128;50.230;18.944;2023-05-03T21:31:21;99350.59;;;7.05;79.65
63535;BME280;55128;50.230;18.944;2023-05-03T21:36:21;99345.03;;;7.19;78.26
63535;BME280;55128;50.230;18.944;2023-05-03T21:41:22;99343.44;;;7.10;77.42
63535;BME280;55128;50.230;18.944;2023-05-03T21:46:22;99343.53;;;7.06;77.52
63535;BME280;55128;50.230;18.944;2023-05-03T21:51:23;99347.63;;;6.75;78.38
63535;BME280;55128;50.230;18.944;2023-05-03T21:56:25;99354.00;;;6.65;78.99
63535;BME280;55128;50.230;18.944;2023-05-03T22:01:25;99354.03;;;6.62;78.60
63535;BME280;55128;50.230;18.944;2023-05-03T22:06:26;99355.97;;;6.52;78.87
63535;BME280;55128;50.230;18.944;2023-05-03T22:11:26;99351.53;;;6.56;77.71
63535;BME280;55128;50.230;18.944;2023-05-03T22:16:26;99356.06;;;6.48;78.47
63535;BME280;55128;50.230;18.944;2023-05-03T22:21:27;99349.13;;;6.42;78.07
63535;BME280;55128;50.230;18.944;2023-05-03T22:26:27;99356.28;;;6.35;78.19
63535;BME280;55128;50.230;18.944;2023-05-03T22:31:28;99360.72;;;6.32;77.93
63535;BME280;55128;50.230;18.944;2023-05-03T22:36:29;99348.53;;;6.25;78.37
63535;BME280;55128;50.230;18.944;2023-05-03T22:41:30;99341.53;;;6.23;78.15
63535;BME280;55128;50.230;18.944;2023-05-03T22:46:31;99344.34;;;6.11;78.04
63535;BME280;55128;50.230;18.944;2023-05-03T22:51:31;99337.38;;;6.09;78.24
63535;BME280;55128;50.230;18.944;2023-05-03T22:56:32;99341.00;;;6.01;78.30
63535;BME280;55128;50.230;18.944;2023-05-03T23:01:32;99335.06;;;5.85;78.39
63535;BME280;55128;50.230;18.944;2023-05-03T23:06:33;99332.53;;;5.79;78.60
63535;BME280;55128;50.230;18.944;2023-05-03T23:11:33;99330.88;;;5.72;78.20
63535;BME280;55128;50.230;18.944;2023-05-03T23:16:34;99328.44;;;5.60;77.56
63535;BME280;55128;50.230;18.944;2023-05-03T23:21:34;99328.56;;;5.51;77.21
63535;BME280;55128;50.230;18.944;2023-05-03T23:26:34;99325.06;;;5.50;77.93
63535;BME280;55128;50.230;18.944;2023-05-03T23:31:35;99324.44;;;5.31;79.23
63535;BME280;55128;50.230;18.944;2023-05-03T23:36:35;99322.72;;;5.27;79.40
63535;BME280;55128;50.230;18.944;2023-05-03T23:41:35;99324.53;;;5.23;78.83
63535;BME280;55128;50.230;18.944;2023-05-03T23:46:36;99325.56;;;5.10;78.46
63535;BME280;55128;50.230;18.944;2023-05-03T23:51:38;99325.72;;;4.99;77.97
63535;BME280;55128;50.230;18.944;2023-05-03T23:56:38;99318.78;;;4.92;77.97
